Time;durP1;ratioP1;P1;durP2;ratioP2;P2;SDS_P1;SDS_P2;PMS_P1;PMS_P2;Temp;Humidity;BMP_temperature;BMP_pressure;BME280_temperature;BME280_humidity;BME280_pressure;Samples;Min_cycle;Max_cycle;Signal;HPM_P1;HPM_P2
2023/04/03 00:02:07;;;;;;;5.38;1.75;;;8.40;34.80;;;;;;5014844;28;20312;-50
2023/04/03 00:04:33;;;;;;;4.83;1.63;;;8.40;34.80;;;;;;5014922;28;20594;-50
2023/04/03 00:06:59;;;;;;;4.47;2.07;;;8.40;34.90;;;;;;5015080;28;20187;-50
2023/04/03 00:09:25;;;;;;;2.67;1.67;;;8.40;34.90;;;;;;5014967;28;20181;-50
2023/04/03 00:11:50;;;;;;;5.90;1.73;;;8.40;34.90;;;;;;5014628;28;20408;-50
2023/04/03 00:14:16;;;;;;;3.67;1.33;;;8.40;34.80;;;;;;4997289;28;20768;-50
2023/04/03 00:16:42;;;;;;;4.30;1.80;;;8.40;34.50;;;;;;5014409;28;20211;-50
2023/04/03 00:19:08;;;;;;;2.60;1.73;;;8.40;34.60;;;;;;5014660;28;20189;-50
2023/04/03 00:21:34;;;;;;;5.78;1.80;;;8.30;34.70;;;;;;5014545;28;20173;-50
2023/04/03 00:24:00;;;;;;;6.00;1.60;;;8.30;34.70;;;;;;5014302;28;20254;-50
2023/04/03 00:26:25;;;;;;;4.37;1.60;;;8.20;34.50;;;;;;5014204;28;20502;-50
2023/04/03 00:28:51;;;;;;;5.30;1.87;;;8.20;34.80;;;;;;5014629;28;20174;-50
2023/04/03 00:31:17;;;;;;;5.43;2.30;;;8.20;34.90;;;;;;5014353;28;20168;-50
2023/04/03 00:33:43;;;;;;;2.47;1.27;;;8.10;35.00;;;;;;5014125;28;20665;-50
2023/04/03 00:36:10;;;;;;;3.93;1.30;;;8.10;35.00;;;;;;5014362;28;20198;-50
2023/04/03 00:38:36;;;;;;;2.83;1.80;;;8.20;34.90;;;;;;5014202;28;20405;-50
2023/04/03 00:41:02;;;;;;;5.33;1.87;;;8.20;34.60;;;;;;5014113;28;20207;-50
2023/04/03 00:43:28;;;;;;;5.70;1.87;;;8.10;34.70;;;;;;5014008;28;20405;-50
2023/04/03 00:45:55;;;;;;;5.93;1.60;;;8.20;34.80;;;;;;5014069;28;20434;-50
2023/04/03 00:48:44;;;;;;;3.17;2.22;;;8.10;34.60;;;;;;5014104;28;20409;-50
2023/04/03 00:51:22;;;;;;;5.68;1.35;;;8.10;34.60;;;;;;5013993;28;20175;-50
2023/04/03 00:53:54;;;;;;;1.80;1.33;;;8.10;34.60;;;;;;5013847;28;20304;-50
2023/04/03 00:56:23;;;;;;;3.38;1.65;;;8.10;34.70;;;;;;5013912;28;20237;-49
2023/04/03 00:58:55;;;;;;;2.63;1.63;;;8.10;34.50;;;;;;5013920;28;20213;-50
2023/04/03 01:01:27;;;;;;;3.22;1.60;;;8.10;34.50;;;;;;5012716;28;20226;-50
2023/04/03 01:03:53;;;;;;;4.90;1.65;;;8.10;34.50;;;;;;5013835;28;20225;-50
2023/04/03 01:06:25;;;;;;;3.25;1.33;;;8.00;34.40;;;;;;5013587;28;20193;-50
2023/04/03 01:08:51;;;;;;;2.30;1.75;;;8.00;34.20;;;;;;5013875;28;20180;-50
2023/04/03 01:11:18;;;;;;;3.25;1.65;;;8.00;35.10;;;;;;5013842;28;20179;-50
2023/04/03 01:13:44;;;;;;;6.50;2.17;;;8.00;34.10;;;;;;5013377;28;20631;-50
2023/04/03 01:16:10;;;;;;;5.55;2.78;;;7.90;34.10;;;;;;5013500;28;20226;-50
2023/04/03 01:18:38;;;;;;;3.83;2.03;;;7.90;34.40;;;;;;5013784;28;20257;-50
2023/04/03 01:21:30;;;;;;;2.22;1.65;;;7.90;34.40;;;;;;5013561;28;20405;-50
2023/04/03 01:24:10;;;;;;;16.83;2.33;;;7.90;34.10;;;;;;5013265;28;20196;-50
2023/04/03 01:26:36;;;;;;;3.80;1.90;;;7.90;34.40;;;;;;5013110;28;20206;-50
2023/04/03 01:29:02;;;;;;;5.53;2.20;;;7.80;34.30;;;;;;5013489;28;20286;-50
2023/04/03 01:31:32;;;;;;;3.45;1.55;;;7.80;34.30;;;;;;5013363;28;20411;-50
2023/04/03 01:33:58;;;;;;;3.10;1.80;;;7.80;34.20;;;;;;5013436;28;20264;-50
2023/04/03 01:36:28;;;;;;;1.95;1.30;;;7.70;34.00;;;;;;5013249;28;20278;-50
2023/04/03 01:38:54;;;;;;;4.65;2.00;;;7.70;34.30;;;;;;5013092;28;20581;-50
2023/04/03 01:41:23;;;;;;;3.80;1.55;;;7.70;34.10;;;;;;5012945;28;20202;-50
2023/04/03 01:43:49;;;;;;;5.13;1.25;;;7.70;34.30;;;;;;5013031;28;20181;-50
2023/04/03 01:46:16;;;;;;;6.72;1.67;;;7.70;34.30;;;;;;5013047;28;20203;-50
2023/04/03 01:48:42;;;;;;;5.38;1.92;;;7.60;34.00;;;;;;5013007;28;20178;-50
2023/04/03 01:51:08;;;;;;;5.57;1.83;;;7.70;34.20;;;;;;5013010;28;20178;-51
2023/04/03 01:53:34;;;;;;;4.23;1.40;;;7.60;34.20;;;;;;5012659;28;20765;-50
2023/04/03 01:56:00;;;;;;;2.97;1.50;;;7.60;34.10;;;;;;5012581;28;20210;-49
2023/04/03 01:58:25;;;;;;;5.57;2.10;;;7.50;34.20;;;;;;5012796;28;20405;-50
2023/04/03 02:00:52;;;;;;;3.70;1.50;;;7.50;34.20;;;;;;5012722;28;20414;-50
2023/04/03 02:03:18;;;;;;;3.83;2.65;;;7.50;34.30;;;;;;5012618;28;20177;-50
2023/04/03 02:05:45;;;;;;;4.35;2.05;;;7.50;34.20;;;;;;5012864;28;20202;-50
2023/04/03 02:08:11;;;;;;;4.45;2.55;;;7.50;34.40;;;;;;5012602;28;20179;-49
2023/04/03 02:10:37;;;;;;;4.60;2.60;;;7.50;34.20;;;;;;5012664;28;20324;-50
2023/04/03 02:13:03;;;;;;;5.07;2.05;;;7.50;34.30;;;;;;5012175;28;20179;-50
2023/04/03 02:15:28;;;;;;;6.60;2.20;;;7.40;34.00;;;;;;5012427;28;20730;-50
2023/04/03 02:17:54;;;;;;;4.70;2.03;;;7.40;34.20;;;;;;5012597;28;20484;-50
2023/04/03 02:20:20;;;;;;;4.10;2.17;;;7.30;34.20;;;;;;5012777;28;20174;-50
2023/04/03 02:22:46;;;;;;;3.90;1.90;;;7.30;34.10;;;;;;5012245;28;20210;-50
2023/04/03 02:25:12;;;;;;;4.70;1.48;;;7.30;34.00;;;;;;5012352;28;20507;-50
2023/04/03 02:27:38;;;;;;;3.17;1.60;;;7.20;34.20;;;;;;5012639;28;20182;-50
2023/04/03 02:30:05;;;;;;;7.70;1.87;;;7.20;34.30;;;;;;5012464;28;20514;-50
2023/04/03 02:32:31;;;;;;;4.32;2.00;;;7.20;34.40;;;;;;5012154;28;20411;-50
2023/04/03 02:34:56;;;;;;;6.78;2.20;;;7.10;34.30;;;;;;5012261;28;20198;-50
2023/04/03 02:37:22;;;;;;;4.13;1.80;;;7.10;34.50;;;;;;5060391;22;20225;-50
2023/04/03 02:39:48;;;;;;;5.10;1.83;;;7.10;34.40;;;;;;5031917;28;20182;-50
2023/04/03 02:42:14;;;;;;;3.57;1.93;;;7.00;34.40;;;;;;5031815;28;20402;-50
2023/04/03 02:44:40;;;;;;;4.93;2.10;;;7.00;34.30;;;;;;5031812;28;20209;-50
2023/04/03 02:47:05;;;;;;;4.10;1.80;;;7.00;34.40;;;;;;5032077;28;20539;-50
2023/04/03 02:49:31;;;;;;;4.60;1.80;;;6.90;34.40;;;;;;5032017;28;20977;-50
2023/04/03 02:51:57;;;;;;;3.53;1.37;;;6.90;34.40;;;;;;5031812;28;20166;-50
2023/04/03 02:54:27;;;;;;;3.33;2.08;;;6.80;34.40;;;;;;5031847;28;20186;-49
2023/04/03 02:56:53;;;;;;;3.60;1.65;;;6.80;34.40;;;;;;5031691;28;20863;-49
2023/04/03 02:59:18;;;;;;;3.73;1.27;;;6.70;34.40;;;;;;5031913;28;20177;-50
2023/04/03 03:01:44;;;;;;;2.67;1.60;;;6.70;34.50;;;;;;5031729;28;20170;-50
2023/04/03 03:04:10;;;;;;;4.70;2.30;;;6.60;34.50;;;;;;5031772;28;20166;-50
2023/04/03 03:06:36;;;;;;;6.97;1.80;;;6.50;34.50;;;;;;5031708;28;20190;-50
2023/04/03 03:09:02;;;;;;;2.90;1.97;;;6.50;34.60;;;;;;5032004;28;20626;-49
2023/04/03 03:11:30;;;;;;;5.63;1.90;;;6.50;34.60;;;;;;5031886;28;20261;-50
2023/04/03 03:13:56;;;;;;;3.95;1.30;;;6.40;34.60;;;;;;5031541;28;20695;-49
2023/04/03 03:16:21;;;;;;;2.80;1.47;;;6.30;34.80;;;;;;5031624;28;20194;-49
2023/04/03 03:18:47;;;;;;;5.37;2.00;;;6.30;34.70;;;;;;5031944;28;20922;-50
2023/04/03 03:21:13;;;;;;;3.33;1.87;;;6.30;34.80;;;;;;5031843;28;20198;-50
2023/04/03 03:23:40;;;;;;;3.67;2.05;;;6.30;35.00;;;;;;5031534;28;20405;-50
2023/04/03 03:26:08;;;;;;;3.22;1.30;;;6.20;34.90;;;;;;5034717;28;20181;-50
2023/04/03 03:28:36;;;;;;;5.95;2.50;;;6.20;35.00;;;;;;5035439;28;20653;-50
2023/04/03 03:31:03;;;;;;;3.17;2.20;;;6.10;35.00;;;;;;5035310;28;20170;-50
2023/04/03 03:33:29;;;;;;;7.93;2.20;;;6.10;35.10;;;;;;5035078;28;20177;-50
2023/04/03 03:35:55;;;;;;;8.20;2.60;;;6.10;35.10;;;;;;5035366;28;20271;-50
2023/04/03 03:38:21;;;;;;;6.20;2.75;;;6.00;35.10;;;;;;5035045;28;20201;-50
2023/04/03 03:40:48;;;;;;;5.80;2.60;;;6.00;35.20;;;;;;5035127;28;20166;-50
2023/04/03 03:43:15;;;;;;;3.67;1.60;;;6.00;35.90;;;;;;5035144;28;20166;-50
2023/04/03 03:45:40;;;;;;;5.15;1.75;;;5.90;35.30;;;;;;5035182;28;20549;-50
2023/04/03 03:48:06;;;;;;;1.77;1.00;;;5.90;35.40;;;;;;5034976;28;20197;-49
2023/04/03 03:50:33;;;;;;;4.53;1.97;;;5.90;35.60;;;;;;5034966;28;20174;-50
2023/04/03 03:52:58;;;;;;;5.22;1.60;;;5.80;35.40;;;;;;5034915;28;20620;-50
2023/04/03 03:55:24;;;;;;;8.87;2.20;;;5.80;35.50;;;;;;5034678;28;20178;-49
2023/04/03 03:57:50;;;;;;;4.25;1.70;;;5.80;35.50;;;;;;5034683;28;20555;-50
2023/04/03 04:00:16;;;;;;;5.63;2.13;;;5.80;35.70;;;;;;5034734;28;20166;-50
2023/04/03 04:02:43;;;;;;;4.67;1.70;;;5.70;35.70;;;;;;5034700;28;20772;-50
2023/04/03 04:05:09;;;;;;;3.58;1.40;;;5.70;35.90;;;;;;5034727;28;20408;-49
2023/04/03 04:07:34;;;;;;;8.05;2.47;;;5.60;35.90;;;;;;5034566;28;20193;-50
2023/04/03 04:10:00;;;;;;;3.80;1.70;;;5.60;36.00;;;;;;5034560;28;20626;-50
2023/04/03 04:12:26;;;;;;;4.47;1.42;;;5.60;35.90;;;;;;5034500;28;20495;-50
2023/04/03 04:14:52;;;;;;;4.73;1.80;;;5.60;36.00;;;;;;5034451;28;20227;-50
2023/04/03 04:17:18;;;;;;;4.47;1.60;;;5.60;36.00;;;;;;5034320;28;20206;-50
2023/04/03 04:19:43;;;;;;;4.00;1.97;;;5.50;36.00;;;;;;5034556;28;20258;-50
2023/04/03 04:22:09;;;;;;;5.13;1.27;;;5.50;36.10;;;;;;5034078;28;21010;-50
2023/04/03 04:24:35;;;;;;;3.63;1.70;;;5.50;36.10;;;;;;5034269;28;20162;-49
2023/04/03 04:27:00;;;;;;;3.83;1.50;;;5.50;36.30;;;;;;5034323;28;20569;-52
2023/04/03 04:29:26;;;;;;;4.17;2.60;;;5.40;36.30;;;;;;5034239;28;20170;-49
2023/04/03 04:31:52;;;;;;;3.60;1.77;;;5.40;36.40;;;;;;5033993;28;20177;-50
2023/04/03 04:34:18;;;;;;;7.03;1.70;;;5.40;36.60;;;;;;5034541;28;20178;-51
2023/04/03 04:36:43;;;;;;;7.47;2.40;;;5.30;36.60;;;;;;5033573;28;20688;-50
2023/04/03 04:39:09;;;;;;;6.00;2.27;;;5.30;36.80;;;;;;5033903;28;20170;-50
2023/04/03 04:41:35;;;;;;;4.93;1.83;;;5.20;36.70;;;;;;5034195;28;20629;-52
2023/04/03 04:44:01;;;;;;;7.78;2.13;;;5.20;37.10;;;;;;5034084;28;20408;-50
2023/04/03 04:46:27;;;;;;;5.73;2.60;;;5.20;37.10;;;;;;5033894;28;20610;-50
2023/04/03 04:48:52;;;;;;;5.07;2.30;;;5.10;37.10;;;;;;5032662;28;20178;-50
2023/04/03 04:51:19;;;;;;;4.03;2.00;;;5.10;37.10;;;;;;5034144;28;20206;-51
2023/04/03 04:53:45;;;;;;;6.85;1.77;;;5.10;37.80;;;;;;5033484;28;20718;-51
2023/04/03 04:56:11;;;;;;;3.30;1.90;;;5.10;37.30;;;;;;5033481;28;20214;-50
2023/04/03 04:58:37;;;;;;;4.72;2.00;;;5.10;37.30;;;;;;5033642;28;20533;-50
2023/04/03 05:01:06;;;;;;;5.35;1.80;;;5.10;37.30;;;;;;5033477;28;20707;-50
2023/04/03 05:03:32;;;;;;;3.88;1.60;;;5.10;37.30;;;;;;5033412;28;20212;-50
2023/04/03 05:05:59;;;;;;;4.90;2.42;;;5.10;37.40;;;;;;5033850;28;20181;-50
2023/04/03 05:08:25;;;;;;;5.10;2.15;;;5.10;37.50;;;;;;5033298;28;20200;-50
2023/04/03 05:10:52;;;;;;;5.05;2.75;;;5.10;37.50;;;;;;5033526;28;20228;-50
2023/04/03 05:13:19;;;;;;;10.73;2.85;;;5.10;37.50;;;;;;5033151;28;20181;-50
2023/04/03 05:15:46;;;;;;;7.85;2.50;;;5.10;37.50;;;;;;5033335;28;20208;-52
2023/04/03 05:18:11;;;;;;;3.65;1.67;;;5.10;37.50;;;;;;5033225;28;20186;-50
2023/04/03 05:20:37;;;;;;;6.13;2.30;;;5.10;37.50;;;;;;5033305;28;20187;-49
2023/04/03 05:23:03;;;;;;;4.10;1.97;;;5.00;37.60;;;;;;5032939;28;20174;-50
2023/04/03 05:25:29;;;;;;;13.20;3.10;;;5.10;37.70;;;;;;5033095;28;20170;-49
2023/04/03 05:27:55;;;;;;;5.10;1.93;;;5.10;37.70;;;;;;5033282;28;20205;-49
2023/04/03 05:30:21;;;;;;;6.30;3.65;;;5.10;37.80;;;;;;5033017;28;20409;-50
2023/04/03 05:32:46;;;;;;;6.63;2.50;;;5.10;37.70;;;;;;5032818;28;20239;-50
2023/04/03 05:35:12;;;;;;;3.40;1.97;;;5.10;37.70;;;;;;5032948;28;20496;-50
2023/04/03 05:37:38;;;;;;;7.57;2.60;;;5.10;37.70;;;;;;5032571;28;20209;-49
2023/04/03 05:40:05;;;;;;;6.03;2.20;;;5.20;37.60;;;;;;5032903;28;20162;-50
2023/04/03 05:42:31;;;;;;;3.83;2.30;;;5.20;37.60;;;;;;5032520;28;20170;-50
2023/04/03 05:44:56;;;;;;;4.90;1.97;;;5.20;37.70;;;;;;5032643;28;20258;-50
2023/04/03 05:47:22;;;;;;;7.10;3.47;;;5.30;37.80;;;;;;5032031;28;20448;-50
2023/04/03 05:49:49;;;;;;;6.50;2.87;;;5.30;37.70;;;;;;5032711;28;20181;-50
2023/04/03 05:52:27;;;;;;;7.82;3.05;;;5.30;37.70;;;;;;5032470;28;20491;-50
2023/04/03 05:54:53;;;;;;;4.63;2.00;;;5.40;37.70;;;;;;5032548;28;20162;-50
2023/04/03 05:57:19;;;;;;;4.10;2.53;;;5.50;37.80;;;;;;5032475;28;20619;-50
2023/04/03 05:59:46;;;;;;;4.70;2.47;;;5.60;37.80;;;;;;5032555;28;20277;-49
2023/04/03 06:02:14;;;;;;;7.60;1.92;;;5.70;37.90;;;;;;5032270;28;20404;-50
2023/04/03 06:04:40;;;;;;;4.90;2.67;;;5.80;37.70;;;;;;5032317;28;20206;-49
2023/04/03 06:07:09;;;;;;;4.90;2.47;;;5.90;37.60;;;;;;5032273;28;20272;-50
2023/04/03 06:09:35;;;;;;;6.10;1.70;;;6.10;37.70;;;;;;5032312;28;20436;-50
2023/04/03 06:12:01;;;;;;;9.40;3.25;;;6.20;37.30;;;;;;5032320;28;20181;-51
2023/04/03 06:14:27;;;;;;;6.30;2.80;;;6.30;37.30;;;;;;5032421;28;20182;-50
2023/04/03 06:16:53;;;;;;;4.53;2.40;;;6.40;37.00;;;;;;5032089;28;20204;-50
2023/04/03 06:19:20;;;;;;;17.55;3.58;;;6.50;36.90;;;;;;5032032;28;20170;-52
2023/04/03 06:21:47;;;;;;;6.75;2.53;;;6.50;37.00;;;;;;5032034;28;20174;-50
2023/04/03 06:24:15;;;;;;;3.70;2.25;;;6.60;37.10;;;;;;5032288;28;20266;-52
2023/04/03 06:26:41;;;;;;;5.72;2.30;;;6.60;36.60;;;;;;5032151;28;20553;-52
2023/04/03 06:29:08;;;;;;;5.20;2.20;;;6.60;36.50;;;;;;5032418;28;20256;-50
2023/04/03 06:31:34;;;;;;;5.03;2.40;;;6.70;36.70;;;;;;5032030;28;20181;-52
2023/04/03 06:34:00;;;;;;;3.33;2.10;;;6.70;36.40;;;;;;5032152;28;20174;-53
2023/04/03 06:36:26;;;;;;;3.90;1.65;;;6.60;36.60;;;;;;5031628;28;20452;-51
2023/04/03 06:38:51;;;;;;;8.90;2.30;;;6.60;36.60;;;;;;5032112;28;20707;-52
2023/04/03 06:41:17;;;;;;;9.20;2.60;;;6.70;36.50;;;;;;5031994;28;20882;-50
2023/04/03 06:43:46;;;;;;;7.43;2.27;;;6.70;36.30;;;;;;5032009;28;20219;-50
2023/04/03 06:46:16;;;;;;;5.57;2.28;;;6.70;36.60;;;;;;5031791;28;20405;-52
2023/04/03 06:48:43;;;;;;;11.68;1.88;;;6.70;36.50;;;;;;5030566;28;20311;-50
2023/04/03 06:51:19;;;;;;;6.18;2.75;;;6.70;36.60;;;;;;5032157;28;20178;-50
2023/04/03 06:53:46;;;;;;;9.43;2.63;;;6.80;36.70;;;;;;5031875;28;20169;-52
2023/04/03 06:56:12;;;;;;;3.80;2.22;;;6.80;36.60;;;;;;5031697;28;20200;-50
2023/04/03 06:58:38;;;;;;;5.63;2.77;;;6.90;36.70;;;;;;5032805;28;20174;-50
2023/04/03 07:01:04;;;;;;;2.78;1.83;;;6.90;36.30;;;;;;5035786;28;20486;-52
2023/04/03 07:03:30;;;;;;;5.87;2.30;;;6.90;36.40;;;;;;5035630;28;20214;-50
2023/04/03 07:05:55;;;;;;;5.60;2.43;;;7.00;36.30;;;;;;5035791;28;20458;-51
2023/04/03 07:08:23;;;;;;;4.40;2.97;;;7.00;36.60;;;;;;5035534;28;20658;-51
2023/04/03 07:10:49;;;;;;;11.90;3.45;;;7.10;36.70;;;;;;5035761;28;20646;-49
2023/04/03 07:13:15;;;;;;;6.50;2.28;;;7.20;36.00;;;;;;5035463;28;20204;-50
2023/04/03 07:15:41;;;;;;;6.60;3.27;;;7.20;35.90;;;;;;5035511;28;20740;-51
2023/04/03 07:18:07;;;;;;;3.77;2.23;;;7.20;36.20;;;;;;5035832;28;20425;-50
2023/04/03 07:20:33;;;;;;;10.73;2.43;;;7.20;36.10;;;;;;5035514;28;20514;-52
2023/04/03 07:22:59;;;;;;;4.85;2.78;;;7.30;36.00;;;;;;5035216;28;20634;-49
2023/04/03 07:25:26;;;;;;;8.25;2.60;;;7.30;36.00;;;;;;5035726;28;20186;-50
2023/04/03 07:27:54;;;;;;;4.30;1.90;;;7.30;36.10;;;;;;5035470;28;20198;-52
2023/04/03 07:30:20;;;;;;;6.38;2.65;;;7.30;35.70;;;;;;5035333;28;20170;-49
2023/04/03 07:32:46;;;;;;;7.20;2.47;;;7.40;35.50;;;;;;5035240;28;20170;-50
2023/04/03 07:35:12;;;;;;;5.90;2.60;;;7.30;35.50;;;;;;5035500;28;20174;-52
2023/04/03 07:37:38;;;;;;;3.03;1.63;;;7.30;35.90;;;;;;5034792;28;20228;-50
2023/04/03 07:40:06;;;;;;;3.60;2.00;;;7.40;36.10;;;;;;5035416;28;20178;-50
2023/04/03 07:42:32;;;;;;;2.70;1.65;;;7.50;35.60;;;;;;5034844;28;20174;-52
2023/04/03 07:44:58;;;;;;;4.90;2.60;;;7.50;35.40;;;;;;5035076;28;20281;-49
2023/04/03 07:47:24;;;;;;;3.43;2.13;;;7.50;35.50;;;;;;5034905;28;20429;-50
2023/04/03 07:49:49;;;;;;;5.03;2.30;;;7.50;35.40;;;;;;5035181;28;20417;-50
2023/04/03 07:52:15;;;;;;;3.83;2.40;;;7.50;35.60;;;;;;5034691;28;20170;-50
2023/04/03 07:54:41;;;;;;;4.97;2.50;;;7.60;35.90;;;;;;5034826;28;20174;-50
2023/04/03 07:57:07;;;;;;;5.97;2.45;;;7.60;35.60;;;;;;5034816;28;20462;-50
2023/04/03 07:59:33;;;;;;;4.67;2.37;;;7.70;35.60;;;;;;5035042;28;20178;-52
2023/04/03 08:01:59;;;;;;;3.42;2.22;;;7.80;35.60;;;;;;5034765;28;20433;-50
2023/04/03 08:04:25;;;;;;;8.53;2.20;;;7.90;35.50;;;;;;5034982;28;20570;-52
2023/04/03 08:06:52;;;;;;;4.90;2.65;;;7.90;35.00;;;;;;5034481;28;20839;-50
2023/04/03 08:09:19;;;;;;;8.02;3.88;;;7.90;35.30;;;;;;5034513;28;20175;-49
2023/04/03 08:11:45;;;;;;;5.22;2.22;;;7.90;34.90;;;;;;5033599;28;20178;-52
2023/04/03 08:14:18;;;;;;;6.20;3.65;;;8.00;35.20;;;;;;5034751;28;20635;-52
2023/04/03 08:16:45;;;;;;;4.32;2.75;;;8.10;35.70;;;;;;5034551;28;20210;-49
2023/04/03 08:19:12;;;;;;;5.80;2.53;;;8.20;35.50;;;;;;5034542;28;20178;-49
2023/04/03 08:21:41;;;;;;;7.90;2.35;;;8.30;34.70;;;;;;5034319;28;20194;-51
2023/04/03 08:24:08;;;;;;;2.53;1.95;;;8.30;34.50;;;;;;5034284;28;20163;-50
2023/04/03 08:26:35;;;;;;;5.80;2.35;;;8.40;34.50;;;;;;5034150;28;20645;-50
2023/04/03 08:29:01;;;;;;;4.72;2.28;;;8.50;34.50;;;;;;5034532;28;20182;-52
2023/04/03 08:31:27;;;;;;;4.80;2.50;;;8.50;34.20;;;;;;5034174;28;20672;-52
2023/04/03 08:33:53;;;;;;;9.35;2.92;;;8.60;34.40;;;;;;5033952;28;20661;-49
2023/04/03 08:36:20;;;;;;;5.13;2.80;;;8.60;34.40;;;;;;5033807;28;20212;-52
2023/04/03 08:38:46;;;;;;;5.47;2.13;;;8.60;34.00;;;;;;5034429;28;20206;-51
2023/04/03 08:41:30;;;;;;;5.17;2.77;;;8.60;34.10;;;;;;5034041;28;20672;-50
2023/04/03 08:44:25;;;;;;;5.72;2.40;;;8.70;34.10;;;;;;5033760;28;20495;-50
2023/04/03 08:47:30;;;;;;;6.88;2.95;;;8.70;34.00;;;;;;5015042;28;20208;-49
2023/04/03 08:50:11;;;;;;;3.58;1.88;;;8.70;34.30;;;;;;5033969;28;20198;-50
2023/04/03 08:52:55;;;;;;;5.10;2.47;;;8.70;34.10;;;;;;5033675;28;20288;-52
2023/04/03 08:55:46;;;;;;;6.30;2.35;;;8.80;33.90;;;;;;5033937;28;20168;-52
2023/04/03 08:58:16;;;;;;;4.68;1.95;;;8.80;33.90;;;;;;5033634;28;20665;-53
2023/04/03 09:00:51;;;;;;;5.60;3.25;;;8.90;33.70;;;;;;5033550;28;20582;-50
2023/04/03 09:03:19;;;;;;;8.00;2.70;;;9.00;33.90;;;;;;5033474;28;20170;-49
2023/04/03 09:06:06;;;;;;;15.05;4.95;;;9.00;33.60;;;;;;5033607;28;20191;-52
2023/04/03 09:08:42;;;;;;;5.95;2.10;;;9.10;33.50;;;;;;5033527;28;20186;-51
2023/04/03 09:11:22;;;;;;;7.90;2.13;;;9.10;33.50;;;;;;5033491;28;20252;-51
2023/04/03 09:14:19;;;;;;;4.38;1.95;;;9.20;33.80;;;;;;5033163;28;20717;-49
2023/04/03 09:17:02;;;;;;;3.58;1.88;;;9.20;32.80;;;;;;5033323;28;20563;-49
2023/04/03 09:19:31;;;;;;;6.65;1.88;;;9.50;33.50;;;;;;5033306;28;20183;-52
2023/04/03 09:21:59;;;;;;;4.07;2.20;;;9.60;33.10;;;;;;5032247;28;20216;-50
2023/04/03 09:24:26;;;;;;;5.40;2.67;;;9.70;32.80;;;;;;5033102;28;20647;-50
2023/04/03 09:27:04;;;;;;;2.67;2.28;;;9.90;32.80;;;;;;5033234;28;20672;-50
2023/04/03 09:29:30;;;;;;;2.95;2.13;;;10.00;32.50;;;;;;5033127;28;20204;-49
2023/04/03 09:32:01;;;;;;;6.25;2.30;;;10.00;32.30;;;;;;5033084;28;20262;-50
2023/04/03 09:34:35;;;;;;;10.10;2.78;;;10.00;32.40;;;;;;5033206;28;20642;-52
2023/04/03 09:37:06;;;;;;;3.40;2.05;;;10.10;32.40;;;;;;5032681;28;20225;-49
2023/04/03 09:39:48;;;;;;;3.45;1.55;;;10.10;32.70;;;;;;5032888;28;20654;-50
2023/04/03 09:42:22;;;;;;;5.65;1.50;;;10.10;31.50;;;;;;5032809;28;20538;-52
2023/04/03 09:45:03;;;;;;;5.05;2.33;;;10.10;31.80;;;;;;5033102;28;20199;-50
2023/04/03 09:47:33;;;;;;;9.63;2.00;;;10.20;31.30;;;;;;5032649;28;20196;-52
2023/04/03 09:50:14;;;;;;;3.60;1.58;;;10.10;31.10;;;;;;5032998;28;20541;-52
2023/04/03 09:52:42;;;;;;;3.40;1.55;;;10.10;31.70;;;;;;5032601;28;20204;-50
2023/04/03 09:55:27;;;;;;;3.30;1.63;;;10.20;31.40;;;;;;5032873;28;20183;-52
2023/04/03 09:57:59;;;;;;;4.43;2.42;;;10.30;31.50;;;;;;5032448;28;20677;-52
2023/04/03 10:00:30;;;;;;;3.25;2.10;;;10.50;31.60;;;;;;5032853;28;20199;-49
2023/04/03 10:02:57;;;;;;;4.43;3.03;;;10.60;31.70;;;;;;5032315;28;20176;-52
2023/04/03 10:05:38;;;;;;;7.07;2.63;;;10.70;31.00;;;;;;5032725;28;20176;-52
2023/04/03 10:08:13;;;;;;;6.60;1.80;;;10.80;30.60;;;;;;5032646;28;20197;-52
2023/04/03 10:11:04;;;;;;;5.30;1.70;;;10.80;30.30;;;;;;5032354;28;20626;-50
2023/04/03 10:13:30;;;;;;;2.58;1.73;;;10.80;29.40;;;;;;5032235;28;20174;-49
2023/04/03 10:16:06;;;;;;;5.40;1.40;;;10.90;29.60;;;;;;5032289;28;20204;-52
2023/04/03 10:18:42;;;;;;;2.15;1.48;;;11.10;29.30;;;;;;5032334;28;20654;-51
2023/04/03 10:21:33;;;;;;;3.33;1.30;;;11.50;31.30;;;;;;5032619;28;20225;-51
2023/04/03 10:24:24;;;;;;;2.55;1.42;;;11.90;29.60;;;;;;5032209;28;20228;-51
2023/04/03 10:27:00;;;;;;;2.28;1.08;;;12.10;28.40;;;;;;5032197;28;20189;-51
2023/04/03 10:30:10;;;;;;;3.10;1.48;;;12.00;28.00;;;;;;5032099;28;20220;-51
2023/04/03 10:32:52;;;;;;;1.63;1.30;;;12.00;27.10;;;;;;4995261;28;20183;-51
2023/04/03 10:35:31;;;;;;;3.65;1.27;;;11.90;26.70;;;;;;5031883;28;20633;-52
2023/04/03 10:38:32;;;;;;;3.65;1.65;;;11.90;26.30;;;;;;5031894;28;20295;-51
2023/04/03 10:41:08;;;;;;;4.65;1.88;;;12.10;28.10;;;;;;5024880;28;20271;-49
2023/04/03 10:43:45;;;;;;;2.83;1.50;;;12.20;26.80;;;;;;5031854;28;20660;-51
2023/04/03 10:46:27;;;;;;;1.83;1.20;;;12.20;26.40;;;;;;5031854;28;20219;-52
2023/04/03 10:49:10;;;;;;;4.72;1.95;;;12.10;27.00;;;;;;5032152;28;20273;-51
2023/04/03 10:51:44;;;;;;;3.00;1.35;;;12.10;26.10;;;;;;5031942;28;20166;-52
2023/04/03 10:54:22;;;;;;;3.40;1.58;;;12.10;25.60;;;;;;5031770;28;20185;-50
2023/04/03 10:57:06;;;;;;;2.58;1.52;;;12.00;25.50;;;;;;5031778;28;20780;-52
2023/04/03 10:59:55;;;;;;;3.53;2.00;;;11.90;25.00;;;;;;5031908;28;20232;-49
2023/04/03 11:02:32;;;;;;;1.35;1.10;;;11.80;24.80;;;;;;5031568;28;20158;-51
2023/04/03 11:05:21;;;;;;;3.90;2.05;;;11.70;26.40;;;;;;5031991;28;20230;-49
2023/04/03 11:07:51;;;;;;;4.05;2.33;;;11.70;25.30;;;;;;5031783;28;20198;-52
2023/04/03 11:10:40;;;;;;;2.75;1.10;;;11.60;24.30;;;;;;5031829;28;20151;-50
2023/04/03 11:13:22;;;;;;;2.20;0.95;;;11.50;25.00;;;;;;5031555;28;20177;-52
2023/04/03 11:15:49;;;;;;;2.88;1.10;;;11.40;25.40;;;;;;5031920;28;20194;-52
2023/04/03 11:18:20;;;;;;;3.90;1.27;;;11.40;26.20;;;;;;5031621;28;20198;-51
2023/04/03 11:21:14;;;;;;;3.65;1.42;;;11.40;26.30;;;;;;5031924;28;20280;-52
2023/04/03 11:23:41;;;;;;;5.20;1.60;;;11.50;26.30;;;;;;5031588;28;20159;-52
2023/04/03 11:26:32;;;;;;;4.20;1.85;;;11.80;25.70;;;;;;5031453;28;20181;-52
2023/04/03 11:29:13;;;;;;;3.15;2.30;;;12.00;25.80;;;;;;5031904;28;20182;-52
2023/04/03 11:31:56;;;;;;;4.63;1.50;;;12.20;24.40;;;;;;5031450;28;20170;-51
2023/04/03 11:34:40;;;;;;;3.15;1.42;;;12.30;25.00;;;;;;5031753;28;20265;-52
2023/04/03 11:37:26;;;;;;;2.85;1.02;;;12.40;24.00;;;;;;5031289;28;20220;-52
2023/04/03 11:39:58;;;;;;;2.95;1.40;;;12.20;24.00;;;;;;5031818;28;20703;-51
2023/04/03 11:42:36;;;;;;;3.85;1.83;;;12.20;24.50;;;;;;5031581;28;20242;-52
2023/04/03 11:45:54;;;;;;;7.72;2.35;;;12.10;24.80;;;;;;5031878;28;20273;-52
2023/04/03 11:48:32;;;;;;;3.85;2.33;;;12.10;25.20;;;;;;5018227;28;20279;-52
2023/04/03 11:51:10;;;;;;;8.10;2.10;;;12.00;24.10;;;;;;5034986;28;20182;-51
2023/04/03 11:53:38;;;;;;;2.97;1.77;;;11.90;24.20;;;;;;5035073;28;20162;-52
2023/04/03 11:56:28;;;;;;;3.90;1.73;;;11.70;24.10;;;;;;5035052;28;20212;-52
2023/04/03 11:59:18;;;;;;;2.70;1.50;;;11.50;25.00;;;;;;5034874;28;20570;-51
2023/04/03 12:01:57;;;;;;;2.58;1.60;;;11.50;25.70;;;;;;5028511;28;20664;-52
2023/04/03 12:04:25;;;;;;;4.13;1.27;;;11.50;25.30;;;;;;5034816;28;20255;-52
2023/04/03 12:06:59;;;;;;;4.85;1.70;;;11.40;25.10;;;;;;5034499;28;20205;-52
2023/04/03 12:09:28;;;;;;;5.35;1.90;;;11.50;25.40;;;;;;5034730;28;20166;-52
2023/04/03 12:11:57;;;;;;;1.20;1.00;;;11.50;25.20;;;;;;5034476;28;20235;-52
2023/04/03 12:14:25;;;;;;;3.45;1.70;;;11.60;25.10;;;;;;5034923;28;20252;-52
2023/04/03 12:16:53;;;;;;;3.78;1.20;;;11.80;24.50;;;;;;5034405;28;20220;-52
2023/04/03 12:19:33;;;;;;;2.03;1.20;;;11.90;24.00;;;;;;5034743;28;20256;-52
2023/04/03 12:21:59;;;;;;;2.03;1.33;;;11.90;24.40;;;;;;5034523;28;20166;-52
2023/04/03 12:24:26;;;;;;;4.07;1.80;;;11.90;24.50;;;;;;5034630;28;20177;-51
2023/04/03 12:27:02;;;;;;;2.65;1.25;;;11.80;24.20;;;;;;5034216;28;20431;-51
2023/04/03 12:29:34;;;;;;;5.72;1.55;;;11.90;25.30;;;;;;5034260;28;20193;-52
2023/04/03 12:32:29;;;;;;;4.75;1.38;;;11.90;24.80;;;;;;5033969;28;20676;-51
2023/04/03 12:35:15;;;;;;;3.00;1.52;;;11.90;24.10;;;;;;5034215;28;20704;-52
2023/04/03 12:38:01;;;;;;;3.92;1.35;;;11.80;23.80;;;;;;5033955;28;20220;-51
2023/04/03 12:40:31;;;;;;;4.43;2.05;;;11.60;24.00;;;;;;5033880;28;20580;-51
2023/04/03 12:43:26;;;;;;;3.63;1.70;;;11.50;24.90;;;;;;5033868;28;20638;-52
2023/04/03 12:46:04;;;;;;;2.03;1.63;;;11.40;24.70;;;;;;5033885;28;20177;-51
2023/04/03 12:48:33;;;;;;;4.95;1.77;;;11.30;24.60;;;;;;5033921;28;20201;-52
2023/04/03 12:51:00;;;;;;;5.18;1.50;;;11.30;25.30;;;;;;5033939;28;20236;-51
2023/04/03 12:53:35;;;;;;;2.80;1.40;;;11.20;24.90;;;;;;5034056;28;20182;-52
2023/04/03 12:56:20;;;;;;;5.85;1.50;;;11.10;24.60;;;;;;5033489;28;20185;-52
2023/04/03 12:58:46;;;;;;;4.90;2.30;;;11.10;25.10;;;;;;5033611;28;20231;-51
2023/04/03 13:01:20;;;;;;;1.83;1.23;;;11.10;25.50;;;;;;5033623;28;20166;-51
2023/04/03 13:03:49;;;;;;;3.15;1.75;;;11.10;25.60;;;;;;5033653;28;20182;-52
2023/04/03 13:06:24;;;;;;;4.35;2.05;;;11.20;25.70;;;;;;5033471;28;20174;-52
2023/04/03 13:08:59;;;;;;;5.18;1.65;;;11.20;25.20;;;;;;5033644;28;20557;-52
2023/04/03 13:11:30;;;;;;;6.07;1.20;;;11.30;25.20;;;;;;5033429;28;20251;-52